Terminal Aerodrome Forecast
Issued by NWS

Home | Current Version | Previous Version | Text Only | Print | Product List | Glossary On
Versions: 1 2 3 4 5 6 7 8 9 10 11 12 13 14 15 16 17 18 19 20 21 22 23 24 25 26 27 28 29 30 31 32 33 34 35 36 37 38 39 40 41 42 43
000
FTUS41 KBOX 051842 AAA
TAFACK
TAF AMD
KACK 051842Z 0519/0618 35011G18KT 2SM -SN OVC008
     FM060000 34011G18KT 1SM -SN OVC003
     FM060500 35014KT P6SM OVC008
     FM060600 35014KT P6SM OVC015
     FM060900 35013KT P6SM BKN050=

USA.gov is the U.S. government's official web portal to all federal, state and local government web resources and services.